sim
Sign-in with your pilot id or email,
or register
Callsign
Passwort

Schedule Details

Flight Number: RYR4484 (2)
Departure: Nuremberg Airport (EDDN) at 16:35
Arrival: Thessaloniki International Airport (LGTS) at 18:55
Route: Ryanair Passenger Schedule. Enter filed route here before submitting Pirep.

Weather Information
Getting current METAR information for EDDN 211550Z 26006KT CAVOK 10/03 Q1027 NOSIG
Getting current METAR information for LGTS 211550Z 35005KT CAVOK 14/00 Q1021 NOSIG

Schedule Frequency

Route Map